sensor_id;sensor_type;location;lat;lon;timestamp;P1;durP1;ratioP1;P2;durP2;ratioP2
45520;SDS011;61151;50.928;4.534;2022-08-11T00:01:54;4.55;;;2.88;;
45520;SDS011;61151;50.928;4.534;2022-08-11T00:04:22;4.28;;;2.70;;
45520;SDS011;61151;50.928;4.534;2022-08-11T00:06:49;4.82;;;3.10;;
45520;SDS011;61151;50.928;4.534;2022-08-11T00:09:18;4.63;;;2.85;;
45520;SDS011;61151;50.928;4.534;2022-08-11T00:11:52;7.20;;;3.88;;
45520;SDS011;61151;50.928;4.534;2022-08-11T00:14:32;6.18;;;3.05;;
45520;SDS011;61151;50.928;4.534;2022-08-11T00:17:05;6.72;;;3.63;;
45520;SDS011;61151;50.928;4.534;2022-08-11T00:19:39;7.88;;;3.30;;
45520;SDS011;61151;50.928;4.534;2022-08-11T00:22:27;8.82;;;3.25;;
45520;SDS011;61151;50.928;4.534;2022-08-11T00:24:55;3.78;;;2.97;;
45520;SDS011;61151;50.928;4.534;2022-08-11T00:27:34;8.10;;;3.63;;
45520;SDS011;61151;50.928;4.534;2022-08-11T00:30:01;7.75;;;3.08;;
45520;SDS011;61151;50.928;4.534;2022-08-11T00:32:28;9.30;;;3.10;;
45520;SDS011;61151;50.928;4.534;2022-08-11T00:34:55;6.43;;;3.35;;
45520;SDS011;61151;50.928;4.534;2022-08-11T00:37:44;5.50;;;3.13;;
45520;SDS011;61151;50.928;4.534;2022-08-11T00:40:16;4.80;;;2.95;;
45520;SDS011;61151;50.928;4.534;2022-08-11T00:45:54;6.25;;;2.97;;
45520;SDS011;61151;50.928;4.534;2022-08-11T00:48:28;6.90;;;3.47;;
45520;SDS011;61151;50.928;4.534;2022-08-11T00:51:09;8.30;;;3.30;;
45520;SDS011;61151;50.928;4.534;2022-08-11T00:53:44;4.35;;;3.08;;
45520;SDS011;61151;50.928;4.534;2022-08-11T01:07:05;5.03;;;2.75;;
45520;SDS011;61151;50.928;4.534;2022-08-11T01:09:55;5.20;;;3.30;;
45520;SDS011;61151;50.928;4.534;2022-08-11T01:15:19;5.68;;;3.67;;
45520;SDS011;61151;50.928;4.534;2022-08-11T01:39:12;4.28;;;2.95;;
45520;SDS011;61151;50.928;4.534;2022-08-11T01:44:41;4.88;;;2.85;;
45520;SDS011;61151;50.928;4.534;2022-08-11T01:53:08;4.00;;;2.60;;
45520;SDS011;61151;50.928;4.534;2022-08-11T01:55:42;6.28;;;3.05;;
45520;SDS011;61151;50.928;4.534;2022-08-11T02:03:51;10.40;;;3.95;;
45520;SDS011;61151;50.928;4.534;2022-08-11T02:12:40;5.88;;;3.40;;
45520;SDS011;61151;50.928;4.534;2022-08-11T02:15:28;5.25;;;2.80;;
45520;SDS011;61151;50.928;4.534;2022-08-11T02:18:07;6.10;;;3.25;;
45520;SDS011;61151;50.928;4.534;2022-08-11T02:23:24;6.32;;;3.00;;
45520;SDS011;61151;50.928;4.534;2022-08-11T02:29:07;10.65;;;3.85;;
45520;SDS011;61151;50.928;4.534;2022-08-11T02:31:46;5.38;;;3.00;;
45520;SDS011;61151;50.928;4.534;2022-08-11T02:35:13;6.20;;;3.35;;
45520;SDS011;61151;50.928;4.534;2022-08-11T02:37:53;6.13;;;3.10;;
45520;SDS011;61151;50.928;4.534;2022-08-11T02:48:49;4.78;;;2.60;;
45520;SDS011;61151;50.928;4.534;2022-08-11T02:54:26;5.40;;;3.17;;
45520;SDS011;61151;50.928;4.534;2022-08-11T03:02:18;6.78;;;2.95;;
45520;SDS011;61151;50.928;4.534;2022-08-11T03:07:40;6.88;;;2.92;;
45520;SDS011;61151;50.928;4.534;2022-08-11T03:13:00;3.90;;;2.83;;
45520;SDS011;61151;50.928;4.534;2022-08-11T03:15:49;6.55;;;3.40;;
45520;SDS011;61151;50.928;4.534;2022-08-11T03:18:37;6.93;;;3.53;;
45520;SDS011;61151;50.928;4.534;2022-08-11T03:21:08;4.85;;;3.30;;
45520;SDS011;61151;50.928;4.534;2022-08-11T03:23:38;5.63;;;3.10;;
45520;SDS011;61151;50.928;4.534;2022-08-11T03:29:00;4.35;;;3.05;;
45520;SDS011;61151;50.928;4.534;2022-08-11T03:31:38;6.80;;;3.05;;
45520;SDS011;61151;50.928;4.534;2022-08-11T03:34:15;5.20;;;2.40;;
45520;SDS011;61151;50.928;4.534;2022-08-11T03:39:49;4.88;;;2.92;;
45520;SDS011;61151;50.928;4.534;2022-08-11T03:42:27;4.57;;;2.70;;
45520;SDS011;61151;50.928;4.534;2022-08-11T04:30:18;6.93;;;2.92;;
45520;SDS011;61151;50.928;4.534;2022-08-11T04:35:33;5.47;;;2.80;;
45520;SDS011;61151;50.928;4.534;2022-08-11T04:38:08;10.10;;;3.10;;
45520;SDS011;61151;50.928;4.534;2022-08-11T05:01:12;4.30;;;3.00;;
45520;SDS011;61151;50.928;4.534;2022-08-11T05:03:52;4.20;;;3.10;;
45520;SDS011;61151;50.928;4.534;2022-08-11T05:14:29;4.88;;;2.80;;
45520;SDS011;61151;50.928;4.534;2022-08-11T05:17:33;5.78;;;3.28;;
45520;SDS011;61151;50.928;4.534;2022-08-11T05:20:19;6.97;;;2.72;;
45520;SDS011;61151;50.928;4.534;2022-08-11T05:23:06;7.40;;;3.13;;
45520;SDS011;61151;50.928;4.534;2022-08-11T05:25:54;5.15;;;3.35;;
45520;SDS011;61151;50.928;4.534;2022-08-11T05:29:00;7.30;;;3.10;;
45520;SDS011;61151;50.928;4.534;2022-08-11T05:31:56;5.53;;;3.30;;
45520;SDS011;61151;50.928;4.534;2022-08-11T05:34:43;5.75;;;3.28;;
45520;SDS011;61151;50.928;4.534;2022-08-11T05:42:54;6.15;;;3.40;;
45520;SDS011;61151;50.928;4.534;2022-08-11T05:45:40;7.70;;;4.10;;
45520;SDS011;61151;50.928;4.534;2022-08-11T05:48:34;8.50;;;3.53;;
45520;SDS011;61151;50.928;4.534;2022-08-11T05:51:20;9.98;;;3.45;;
45520;SDS011;61151;50.928;4.534;2022-08-11T05:54:20;9.77;;;4.72;;
45520;SDS011;61151;50.928;4.534;2022-08-11T05:57:07;11.10;;;4.00;;
45520;SDS011;61151;50.928;4.534;2022-08-11T05:59:34;9.27;;;4.22;;
45520;SDS011;61151;50.928;4.534;2022-08-11T06:02:02;12.05;;;4.18;;
45520;SDS011;61151;50.928;4.534;2022-08-11T06:04:30;14.95;;;4.40;;
45520;SDS011;61151;50.928;4.534;2022-08-11T06:07:01;11.43;;;4.70;;
45520;SDS011;61151;50.928;4.534;2022-08-11T06:09:33;12.27;;;4.35;;
45520;SDS011;61151;50.928;4.534;2022-08-11T06:12:05;11.93;;;4.68;;
45520;SDS011;61151;50.928;4.534;2022-08-11T06:14:34;9.93;;;4.28;;
45520;SDS011;61151;50.928;4.534;2022-08-11T06:17:07;17.50;;;5.75;;
45520;SDS011;61151;50.928;4.534;2022-08-11T06:19:37;9.45;;;4.47;;
45520;SDS011;61151;50.928;4.534;2022-08-11T06:22:05;12.73;;;4.57;;
45520;SDS011;61151;50.928;4.534;2022-08-11T06:24:33;13.55;;;4.40;;
45520;SDS011;61151;50.928;4.534;2022-08-11T06:27:00;8.15;;;4.65;;
45520;SDS011;61151;50.928;4.534;2022-08-11T06:29:50;9.93;;;4.93;;
45520;SDS011;61151;50.928;4.534;2022-08-11T06:32:22;9.32;;;4.32;;
45520;SDS011;61151;50.928;4.534;2022-08-11T06:43:02;19.55;;;6.90;;
45520;SDS011;61151;50.928;4.534;2022-08-11T06:45:50;26.80;;;7.70;;
45520;SDS011;61151;50.928;4.534;2022-08-11T06:48:18;22.83;;;7.65;;
45520;SDS011;61151;50.928;4.534;2022-08-11T06:50:56;24.40;;;6.82;;
45520;SDS011;61151;50.928;4.534;2022-08-11T06:53:49;14.93;;;5.47;;
45520;SDS011;61151;50.928;4.534;2022-08-11T06:56:34;15.43;;;5.60;;
45520;SDS011;61151;50.928;4.534;2022-08-11T06:59:40;11.25;;;5.30;;
45520;SDS011;61151;50.928;4.534;2022-08-11T07:02:27;12.80;;;5.53;;
45520;SDS011;61151;50.928;4.534;2022-08-11T07:13:37;11.25;;;4.85;;
45520;SDS011;61151;50.928;4.534;2022-08-11T07:16:27;16.02;;;5.00;;
45520;SDS011;61151;50.928;4.534;2022-08-11T07:18:56;9.15;;;4.60;;
45520;SDS011;61151;50.928;4.534;2022-08-11T07:21:43;15.85;;;5.15;;
45520;SDS011;61151;50.928;4.534;2022-08-11T07:24:58;15.43;;;5.10;;
45520;SDS011;61151;50.928;4.534;2022-08-11T07:27:46;11.60;;;5.05;;
45520;SDS011;61151;50.928;4.534;2022-08-11T07:30:33;11.93;;;4.97;;
45520;SDS011;61151;50.928;4.534;2022-08-11T07:33:00;10.50;;;4.78;;
45520;SDS011;61151;50.928;4.534;2022-08-11T07:35:41;10.23;;;4.57;;
45520;SDS011;61151;50.928;4.534;2022-08-11T07:38:21;11.63;;;4.60;;
45520;SDS011;61151;50.928;4.534;2022-08-11T07:40:50;9.75;;;5.15;;
45520;SDS011;61151;50.928;4.534;2022-08-11T07:43:17;11.38;;;4.80;;
45520;SDS011;61151;50.928;4.534;2022-08-11T07:45:44;10.65;;;4.50;;
45520;SDS011;61151;50.928;4.534;2022-08-11T07:48:30;7.47;;;4.60;;
45520;SDS011;61151;50.928;4.534;2022-08-11T07:51:19;14.38;;;4.68;;
45520;SDS011;61151;50.928;4.534;2022-08-11T07:54:05;11.80;;;4.22;;
45520;SDS011;61151;50.928;4.534;2022-08-11T07:56:42;12.93;;;4.40;;
45520;SDS011;61151;50.928;4.534;2022-08-11T07:59:32;7.75;;;4.60;;
45520;SDS011;61151;50.928;4.534;2022-08-11T08:02:37;9.27;;;4.50;;
45520;SDS011;61151;50.928;4.534;2022-08-11T08:05:22;8.32;;;4.40;;
45520;SDS011;61151;50.928;4.534;2022-08-11T08:08:07;10.10;;;4.28;;
45520;SDS011;61151;50.928;4.534;2022-08-11T08:10:53;11.85;;;4.25;;
45520;SDS011;61151;50.928;4.534;2022-08-11T08:13:40;8.68;;;4.38;;
45520;SDS011;61151;50.928;4.534;2022-08-11T08:16:26;9.02;;;4.85;;
45520;SDS011;61151;50.928;4.534;2022-08-11T08:19:15;7.68;;;3.88;;
45520;SDS011;61151;50.928;4.534;2022-08-11T08:21:42;9.52;;;4.30;;
45520;SDS011;61151;50.928;4.534;2022-08-11T08:24:10;7.80;;;4.43;;
45520;SDS011;61151;50.928;4.534;2022-08-11T08:26:37;6.25;;;4.10;;
45520;SDS011;61151;50.928;4.534;2022-08-11T08:29:27;9.85;;;4.78;;
45520;SDS011;61151;50.928;4.534;2022-08-11T08:32:14;7.90;;;4.13;;
45520;SDS011;61151;50.928;4.534;2022-08-11T08:34:42;7.82;;;3.90;;
45520;SDS011;61151;50.928;4.534;2022-08-11T08:37:09;11.18;;;4.57;;
45520;SDS011;61151;50.928;4.534;2022-08-11T08:39:56;6.57;;;4.40;;
45520;SDS011;61151;50.928;4.534;2022-08-11T08:42:28;6.47;;;3.97;;
45520;SDS011;61151;50.928;4.534;2022-08-11T08:44:57;6.97;;;4.28;;
45520;SDS011;61151;50.928;4.534;2022-08-11T08:47:24;7.72;;;4.18;;
45520;SDS011;61151;50.928;4.534;2022-08-11T08:50:10;7.78;;;4.25;;
45520;SDS011;61151;50.928;4.534;2022-08-11T08:52:44;6.95;;;4.10;;
45520;SDS011;61151;50.928;4.534;2022-08-11T08:55:16;9.45;;;4.00;;
45520;SDS011;61151;50.928;4.534;2022-08-11T08:57:44;9.00;;;4.25;;
45520;SDS011;61151;50.928;4.534;2022-08-11T09:00:12;5.82;;;3.80;;
45520;SDS011;61151;50.928;4.534;2022-08-11T09:02:48;6.43;;;3.60;;
45520;SDS011;61151;50.928;4.534;2022-08-11T09:05:16;8.57;;;4.07;;
45520;SDS011;61151;50.928;4.534;2022-08-11T09:07:42;7.38;;;4.30;;
45520;SDS011;61151;50.928;4.534;2022-08-11T09:10:13;7.15;;;4.15;;
45520;SDS011;61151;50.928;4.534;2022-08-11T09:12:45;9.57;;;4.65;;
45520;SDS011;61151;50.928;4.534;2022-08-11T09:15:12;7.50;;;4.05;;
45520;SDS011;61151;50.928;4.534;2022-08-11T09:17:46;8.23;;;4.20;;
45520;SDS011;61151;50.928;4.534;2022-08-11T09:20:24;7.88;;;3.58;;
45520;SDS011;61151;50.928;4.534;2022-08-11T09:22:54;9.13;;;4.18;;
45520;SDS011;61151;50.928;4.534;2022-08-11T09:26:00;9.75;;;4.18;;
45520;SDS011;61151;50.928;4.534;2022-08-11T09:28:46;7.20;;;4.20;;
45520;SDS011;61151;50.928;4.534;2022-08-11T09:31:15;6.88;;;3.95;;
45520;SDS011;61151;50.928;4.534;2022-08-11T09:33:42;5.65;;;3.60;;
45520;SDS011;61151;50.928;4.534;2022-08-11T09:36:10;8.25;;;4.03;;
45520;SDS011;61151;50.928;4.534;2022-08-11T09:38:55;6.25;;;4.03;;
45520;SDS011;61151;50.928;4.534;2022-08-11T09:41:41;8.35;;;3.80;;
45520;SDS011;61151;50.928;4.534;2022-08-11T09:44:27;6.50;;;3.75;;
45520;SDS011;61151;50.928;4.534;2022-08-11T09:47:24;7.95;;;4.30;;
45520;SDS011;61151;50.928;4.534;2022-08-11T09:49:52;7.68;;;4.30;;
45520;SDS011;61151;50.928;4.534;2022-08-11T09:52:20;4.63;;;3.38;;
45520;SDS011;61151;50.928;4.534;2022-08-11T09:54:48;7.78;;;4.20;;
45520;SDS011;61151;50.928;4.534;2022-08-11T09:57:19;7.30;;;3.75;;
45520;SDS011;61151;50.928;4.534;2022-08-11T10:00:05;6.68;;;3.92;;
45520;SDS011;61151;50.928;4.534;2022-08-11T10:02:40;8.88;;;4.05;;
45520;SDS011;61151;50.928;4.534;2022-08-11T10:05:09;4.75;;;3.35;;
45520;SDS011;61151;50.928;4.534;2022-08-11T10:07:58;5.40;;;3.53;;
45520;SDS011;61151;50.928;4.534;2022-08-11T10:10:26;7.78;;;3.83;;
45520;SDS011;61151;50.928;4.534;2022-08-11T10:12:58;6.25;;;3.92;;
45520;SDS011;61151;50.928;4.534;2022-08-11T10:15:28;5.47;;;3.63;;
45520;SDS011;61151;50.928;4.534;2022-08-11T10:18:28;5.45;;;3.55;;
45520;SDS011;61151;50.928;4.534;2022-08-11T10:21:08;5.95;;;4.28;;
45520;SDS011;61151;50.928;4.534;2022-08-11T10:23:36;7.68;;;3.88;;
45520;SDS011;61151;50.928;4.534;2022-08-11T10:26:35;6.25;;;3.65;;
45520;SDS011;61151;50.928;4.534;2022-08-11T10:29:22;6.20;;;3.63;;
45520;SDS011;61151;50.928;4.534;2022-08-11T10:32:22;6.90;;;3.30;;
45520;SDS011;61151;50.928;4.534;2022-08-11T10:35:25;7.40;;;3.53;;
45520;SDS011;61151;50.928;4.534;2022-08-11T10:37:52;7.18;;;3.97;;
45520;SDS011;61151;50.928;4.534;2022-08-11T10:40:38;5.20;;;3.55;;
45520;SDS011;61151;50.928;4.534;2022-08-11T10:43:06;5.90;;;3.70;;
45520;SDS011;61151;50.928;4.534;2022-08-11T10:45:36;7.32;;;3.60;;
45520;SDS011;61151;50.928;4.534;2022-08-11T10:48:23;6.20;;;3.55;;
45520;SDS011;61151;50.928;4.534;2022-08-11T10:50:51;6.78;;;3.65;;
45520;SDS011;61151;50.928;4.534;2022-08-11T10:53:37;5.15;;;3.42;;
45520;SDS011;61151;50.928;4.534;2022-08-11T10:56:23;6.70;;;3.47;;
45520;SDS011;61151;50.928;4.534;2022-08-11T10:59:11;6.95;;;3.95;;
45520;SDS011;61151;50.928;4.534;2022-08-11T11:01:41;8.05;;;3.85;;
45520;SDS011;61151;50.928;4.534;2022-08-11T11:09:12;5.68;;;3.72;;
45520;SDS011;61151;50.928;4.534;2022-08-11T11:11:42;4.28;;;3.03;;
45520;SDS011;61151;50.928;4.534;2022-08-11T11:14:29;7.22;;;3.42;;
45520;SDS011;61151;50.928;4.534;2022-08-11T11:20:17;7.68;;;4.00;;
45520;SDS011;61151;50.928;4.534;2022-08-11T11:23:08;5.57;;;3.33;;
45520;SDS011;61151;50.928;4.534;2022-08-11T11:28:15;5.97;;;3.15;;
45520;SDS011;61151;50.928;4.534;2022-08-11T11:33:57;5.22;;;3.50;;
45520;SDS011;61151;50.928;4.534;2022-08-11T11:39:11;5.40;;;3.38;;
45520;SDS011;61151;50.928;4.534;2022-08-11T11:41:38;4.97;;;2.88;;
45520;SDS011;61151;50.928;4.534;2022-08-11T11:44:05;6.65;;;3.25;;
45520;SDS011;61151;50.928;4.534;2022-08-11T11:46:32;5.45;;;3.47;;
45520;SDS011;61151;50.928;4.534;2022-08-11T11:49:04;5.00;;;3.13;;
45520;SDS011;61151;50.928;4.534;2022-08-11T11:51:46;5.28;;;3.40;;
45520;SDS011;61151;50.928;4.534;2022-08-11T11:54:15;5.18;;;3.58;;
45520;SDS011;61151;50.928;4.534;2022-08-11T11:56:42;5.25;;;3.30;;
45520;SDS011;61151;50.928;4.534;2022-08-11T11:59:12;5.75;;;3.67;;
45520;SDS011;61151;50.928;4.534;2022-08-11T12:01:58;6.50;;;3.20;;
45520;SDS011;61151;50.928;4.534;2022-08-11T12:04:25;6.00;;;3.90;;
45520;SDS011;61151;50.928;4.534;2022-08-11T12:06:52;5.20;;;3.42;;
45520;SDS011;61151;50.928;4.534;2022-08-11T12:09:39;7.03;;;3.60;;
45520;SDS011;61151;50.928;4.534;2022-08-11T12:12:07;7.80;;;4.05;;
45520;SDS011;61151;50.928;4.534;2022-08-11T12:14:52;5.40;;;3.35;;
45520;SDS011;61151;50.928;4.534;2022-08-11T12:17:19;6.55;;;3.47;;
45520;SDS011;61151;50.928;4.534;2022-08-11T12:19:46;6.45;;;3.72;;
45520;SDS011;61151;50.928;4.534;2022-08-11T12:22:14;5.70;;;3.95;;
45520;SDS011;61151;50.928;4.534;2022-08-11T12:25:00;8.25;;;3.42;;
45520;SDS011;61151;50.928;4.534;2022-08-11T12:27:45;5.95;;;3.42;;
45520;SDS011;61151;50.928;4.534;2022-08-11T12:30:12;5.35;;;3.97;;
45520;SDS011;61151;50.928;4.534;2022-08-11T12:32:39;6.82;;;4.13;;
45520;SDS011;61151;50.928;4.534;2022-08-11T12:35:07;7.90;;;4.00;;
45520;SDS011;61151;50.928;4.534;2022-08-11T12:37:36;6.38;;;3.95;;
45520;SDS011;61151;50.928;4.534;2022-08-11T12:40:04;9.15;;;3.92;;
45520;SDS011;61151;50.928;4.534;2022-08-11T12:43:15;10.98;;;3.97;;
45520;SDS011;61151;50.928;4.534;2022-08-11T12:46:05;7.80;;;3.90;;
45520;SDS011;61151;50.928;4.534;2022-08-11T12:48:34;7.35;;;3.83;;
45520;SDS011;61151;50.928;4.534;2022-08-11T12:57:00;11.10;;;4.28;;
45520;SDS011;61151;50.928;4.534;2022-08-11T13:00:03;7.53;;;4.15;;
45520;SDS011;61151;50.928;4.534;2022-08-11T13:02:50;8.77;;;4.15;;
45520;SDS011;61151;50.928;4.534;2022-08-11T13:05:36;7.57;;;4.70;;
45520;SDS011;61151;50.928;4.534;2022-08-11T13:08:10;7.72;;;3.92;;
45520;SDS011;61151;50.928;4.534;2022-08-11T13:10:39;7.22;;;4.15;;
45520;SDS011;61151;50.928;4.534;2022-08-11T13:13:24;7.72;;;4.63;;
45520;SDS011;61151;50.928;4.534;2022-08-11T13:16:11;6.72;;;4.18;;
45520;SDS011;61151;50.928;4.534;2022-08-11T13:18:40;8.98;;;4.72;;
45520;SDS011;61151;50.928;4.534;2022-08-11T13:21:10;10.85;;;5.20;;
45520;SDS011;61151;50.928;4.534;2022-08-11T13:23:45;8.63;;;4.72;;
45520;SDS011;61151;50.928;4.534;2022-08-11T13:26:34;7.97;;;4.47;;
45520;SDS011;61151;50.928;4.534;2022-08-11T13:29:18;7.75;;;4.38;;
45520;SDS011;61151;50.928;4.534;2022-08-11T13:31:45;8.23;;;4.60;;
45520;SDS011;61151;50.928;4.534;2022-08-11T13:34:13;10.27;;;4.75;;
45520;SDS011;61151;50.928;4.534;2022-08-11T13:36:41;10.45;;;5.13;;
45520;SDS011;61151;50.928;4.534;2022-08-11T13:39:08;12.05;;;4.65;;
45520;SDS011;61151;50.928;4.534;2022-08-11T13:41:35;9.15;;;4.60;;
45520;SDS011;61151;50.928;4.534;2022-08-11T13:44:07;9.07;;;5.15;;
45520;SDS011;61151;50.928;4.534;2022-08-11T13:46:35;8.82;;;4.63;;
45520;SDS011;61151;50.928;4.534;2022-08-11T13:49:02;8.32;;;4.47;;
45520;SDS011;61151;50.928;4.534;2022-08-11T13:51:29;8.40;;;4.90;;
45520;SDS011;61151;50.928;4.534;2022-08-11T13:54:04;10.35;;;4.78;;
45520;SDS011;61151;50.928;4.534;2022-08-11T13:56:32;7.30;;;4.15;;
45520;SDS011;61151;50.928;4.534;2022-08-11T13:59:00;8.88;;;4.80;;
45520;SDS011;61151;50.928;4.534;2022-08-11T14:01:31;10.38;;;4.78;;
45520;SDS011;61151;50.928;4.534;2022-08-11T14:07:05;8.40;;;4.55;;
45520;SDS011;61151;50.928;4.534;2022-08-11T14:09:39;10.07;;;4.45;;
45520;SDS011;61151;50.928;4.534;2022-08-11T14:12:13;7.45;;;4.50;;
45520;SDS011;61151;50.928;4.534;2022-08-11T14:15:01;10.55;;;4.97;;
45520;SDS011;61151;50.928;4.534;2022-08-11T14:17:34;9.40;;;5.00;;
45520;SDS011;61151;50.928;4.534;2022-08-11T14:20:15;8.00;;;4.63;;
45520;SDS011;61151;50.928;4.534;2022-08-11T14:23:02;11.25;;;4.45;;
45520;SDS011;61151;50.928;4.534;2022-08-11T14:25:29;6.88;;;3.88;;
45520;SDS011;61151;50.928;4.534;2022-08-11T14:28:16;9.75;;;4.60;;
45520;SDS011;61151;50.928;4.534;2022-08-11T14:31:00;10.80;;;4.78;;
45520;SDS011;61151;50.928;4.534;2022-08-11T14:33:29;8.07;;;4.75;;
45520;SDS011;61151;50.928;4.534;2022-08-11T14:36:16;8.15;;;4.63;;
45520;SDS011;61151;50.928;4.534;2022-08-11T14:38:43;6.50;;;4.40;;
45520;SDS011;61151;50.928;4.534;2022-08-11T14:41:10;9.00;;;4.43;;
45520;SDS011;61151;50.928;4.534;2022-08-11T14:43:55;7.70;;;4.20;;
45520;SDS011;61151;50.928;4.534;2022-08-11T14:46:41;8.30;;;3.95;;
45520;SDS011;61151;50.928;4.534;2022-08-11T14:49:27;9.38;;;4.57;;
45520;SDS011;61151;50.928;4.534;2022-08-11T14:51:54;7.50;;;4.15;;
45520;SDS011;61151;50.928;4.534;2022-08-11T14:54:25;7.95;;;4.10;;
45520;SDS011;61151;50.928;4.534;2022-08-11T14:57:12;7.50;;;4.40;;
45520;SDS011;61151;50.928;4.534;2022-08-11T14:59:38;9.73;;;5.57;;
45520;SDS011;61151;50.928;4.534;2022-08-11T15:02:05;6.55;;;4.18;;
45520;SDS011;61151;50.928;4.534;2022-08-11T15:04:51;7.85;;;5.10;;
45520;SDS011;61151;50.928;4.534;2022-08-11T15:07:18;7.68;;;4.68;;
45520;SDS011;61151;50.928;4.534;2022-08-11T15:09:50;9.77;;;3.67;;
45520;SDS011;61151;50.928;4.534;2022-08-11T15:12:38;7.00;;;3.80;;
45520;SDS011;61151;50.928;4.534;2022-08-11T15:15:07;7.35;;;4.38;;
45520;SDS011;61151;50.928;4.534;2022-08-11T15:17:53;8.00;;;4.10;;
45520;SDS011;61151;50.928;4.534;2022-08-11T15:20:20;6.20;;;4.05;;
45520;SDS011;61151;50.928;4.534;2022-08-11T15:23:05;9.43;;;3.70;;
45520;SDS011;61151;50.928;4.534;2022-08-11T15:25:55;7.45;;;4.22;;
45520;SDS011;61151;50.928;4.534;2022-08-11T15:28:23;7.63;;;4.20;;
45520;SDS011;61151;50.928;4.534;2022-08-11T15:31:08;8.50;;;4.00;;
45520;SDS011;61151;50.928;4.534;2022-08-11T15:33:55;5.80;;;3.58;;
45520;SDS011;61151;50.928;4.534;2022-08-11T15:36:44;6.97;;;3.92;;
45520;SDS011;61151;50.928;4.534;2022-08-11T15:39:38;8.90;;;4.65;;
45520;SDS011;61151;50.928;4.534;2022-08-11T15:42:27;5.90;;;3.92;;
45520;SDS011;61151;50.928;4.534;2022-08-11T15:45:13;6.38;;;4.10;;
45520;SDS011;61151;50.928;4.534;2022-08-11T15:48:01;6.28;;;3.28;;
45520;SDS011;61151;50.928;4.534;2022-08-11T15:50:31;6.47;;;4.13;;
45520;SDS011;61151;50.928;4.534;2022-08-11T15:53:04;6.65;;;3.67;;
45520;SDS011;61151;50.928;4.534;2022-08-11T15:55:34;5.68;;;3.72;;
45520;SDS011;61151;50.928;4.534;2022-08-11T15:58:02;6.70;;;3.80;;
45520;SDS011;61151;50.928;4.534;2022-08-11T16:00:48;6.18;;;3.90;;
45520;SDS011;61151;50.928;4.534;2022-08-11T16:03:40;6.75;;;3.90;;
45520;SDS011;61151;50.928;4.534;2022-08-11T16:06:34;6.95;;;3.45;;
45520;SDS011;61151;50.928;4.534;2022-08-11T16:09:01;7.10;;;3.95;;
45520;SDS011;61151;50.928;4.534;2022-08-11T16:11:43;4.97;;;3.58;;
45520;SDS011;61151;50.928;4.534;2022-08-11T16:14:11;6.10;;;3.58;;
45520;SDS011;61151;50.928;4.534;2022-08-11T16:16:58;6.53;;;3.60;;
45520;SDS011;61151;50.928;4.534;2022-08-11T16:19:26;8.23;;;3.80;;
45520;SDS011;61151;50.928;4.534;2022-08-11T16:21:54;6.22;;;3.22;;
45520;SDS011;61151;50.928;4.534;2022-08-11T16:24:22;6.82;;;3.60;;
45520;SDS011;61151;50.928;4.534;2022-08-11T16:27:09;9.07;;;3.60;;
45520;SDS011;61151;50.928;4.534;2022-08-11T16:29:41;5.47;;;3.70;;
45520;SDS011;61151;50.928;4.534;2022-08-11T16:32:15;7.13;;;3.75;;
45520;SDS011;61151;50.928;4.534;2022-08-11T16:34:48;6.25;;;3.60;;
45520;SDS011;61151;50.928;4.534;2022-08-11T16:37:36;6.55;;;3.53;;
45520;SDS011;61151;50.928;4.534;2022-08-11T16:40:21;6.63;;;3.92;;
45520;SDS011;61151;50.928;4.534;2022-08-11T16:42:48;4.72;;;3.28;;
45520;SDS011;61151;50.928;4.534;2022-08-11T16:45:37;6.93;;;3.53;;
45520;SDS011;61151;50.928;4.534;2022-08-11T16:48:24;7.55;;;3.60;;
45520;SDS011;61151;50.928;4.534;2022-08-11T16:51:04;4.32;;;3.17;;
45520;SDS011;61151;50.928;4.534;2022-08-11T16:53:30;6.13;;;3.00;;
45520;SDS011;61151;50.928;4.534;2022-08-11T16:56:18;4.90;;;3.10;;
45520;SDS011;61151;50.928;4.534;2022-08-11T16:58:46;4.00;;;3.33;;
45520;SDS011;61151;50.928;4.534;2022-08-11T17:01:34;5.07;;;3.55;;
45520;SDS011;61151;50.928;4.534;2022-08-11T17:04:05;4.43;;;3.33;;
45520;SDS011;61151;50.928;4.534;2022-08-11T17:06:56;5.45;;;3.35;;
45520;SDS011;61151;50.928;4.534;2022-08-11T17:10:02;6.25;;;3.60;;
45520;SDS011;61151;50.928;4.534;2022-08-11T17:13:09;5.32;;;3.85;;
45520;SDS011;61151;50.928;4.534;2022-08-11T17:15:40;7.10;;;3.50;;
45520;SDS011;61151;50.928;4.534;2022-08-11T17:18:27;6.72;;;3.28;;
45520;SDS011;61151;50.928;4.534;2022-08-11T17:21:17;6.60;;;3.97;;
45520;SDS011;61151;50.928;4.534;2022-08-11T17:23:46;5.45;;;3.72;;
45520;SDS011;61151;50.928;4.534;2022-08-11T17:26:23;4.00;;;3.17;;
45520;SDS011;61151;50.928;4.534;2022-08-11T17:28:51;5.10;;;2.95;;
45520;SDS011;61151;50.928;4.534;2022-08-11T17:31:22;5.32;;;3.60;;
45520;SDS011;61151;50.928;4.534;2022-08-11T17:34:08;5.43;;;3.63;;
45520;SDS011;61151;50.928;4.534;2022-08-11T17:36:53;4.18;;;3.03;;
45520;SDS011;61151;50.928;4.534;2022-08-11T17:39:23;3.85;;;3.20;;
45520;SDS011;61151;50.928;4.534;2022-08-11T17:41:50;4.63;;;3.38;;
45520;SDS011;61151;50.928;4.534;2022-08-11T17:44:36;4.50;;;3.05;;
45520;SDS011;61151;50.928;4.534;2022-08-11T17:47:22;6.45;;;3.15;;
45520;SDS011;61151;50.928;4.534;2022-08-11T17:50:08;4.97;;;3.20;;
45520;SDS011;61151;50.928;4.534;2022-08-11T17:52:43;4.97;;;3.35;;
45520;SDS011;61151;50.928;4.534;2022-08-11T17:55:39;4.70;;;2.97;;
45520;SDS011;61151;50.928;4.534;2022-08-11T17:58:25;5.13;;;3.00;;
45520;SDS011;61151;50.928;4.534;2022-08-11T18:01:11;5.20;;;3.35;;
45520;SDS011;61151;50.928;4.534;2022-08-11T18:03:40;4.95;;;3.30;;
45520;SDS011;61151;50.928;4.534;2022-08-11T18:06:23;6.40;;;3.45;;
45520;SDS011;61151;50.928;4.534;2022-08-11T18:09:01;5.35;;;3.10;;
45520;SDS011;61151;50.928;4.534;2022-08-11T18:11:47;6.30;;;3.75;;
45520;SDS011;61151;50.928;4.534;2022-08-11T18:14:38;5.50;;;3.20;;
45520;SDS011;61151;50.928;4.534;2022-08-11T18:17:24;5.43;;;3.17;;
45520;SDS011;61151;50.928;4.534;2022-08-11T18:20:09;4.40;;;3.28;;
45520;SDS011;61151;50.928;4.534;2022-08-11T18:22:54;6.30;;;2.97;;
45520;SDS011;61151;50.928;4.534;2022-08-11T18:25:42;7.10;;;3.55;;
45520;SDS011;61151;50.928;4.534;2022-08-11T18:28:31;3.97;;;3.00;;
45520;SDS011;61151;50.928;4.534;2022-08-11T18:31:22;7.97;;;3.50;;
45520;SDS011;61151;50.928;4.534;2022-08-11T18:34:09;6.72;;;3.60;;
45520;SDS011;61151;50.928;4.534;2022-08-11T18:37:05;9.13;;;3.75;;
45520;SDS011;61151;50.928;4.534;2022-08-11T18:39:59;5.18;;;3.42;;
45520;SDS011;61151;50.928;4.534;2022-08-11T18:42:46;3.75;;;2.67;;
45520;SDS011;61151;50.928;4.534;2022-08-11T18:45:33;5.28;;;3.35;;
45520;SDS011;61151;50.928;4.534;2022-08-11T18:48:34;3.83;;;2.70;;
45520;SDS011;61151;50.928;4.534;2022-08-11T18:51:20;5.72;;;3.25;;
45520;SDS011;61151;50.928;4.534;2022-08-11T18:54:07;8.85;;;3.20;;
45520;SDS011;61151;50.928;4.534;2022-08-11T18:56:53;12.10;;;3.97;;
45520;SDS011;61151;50.928;4.534;2022-08-11T18:59:40;6.43;;;2.95;;
45520;SDS011;61151;50.928;4.534;2022-08-11T19:02:26;6.60;;;3.03;;
45520;SDS011;61151;50.928;4.534;2022-08-11T19:05:15;5.13;;;3.15;;
45520;SDS011;61151;50.928;4.534;2022-08-11T19:08:22;5.72;;;3.33;;
45520;SDS011;61151;50.928;4.534;2022-08-11T19:11:07;6.32;;;3.65;;
45520;SDS011;61151;50.928;4.534;2022-08-11T19:13:54;4.63;;;3.55;;
45520;SDS011;61151;50.928;4.534;2022-08-11T19:16:40;15.52;;;4.82;;
45520;SDS011;61151;50.928;4.534;2022-08-11T19:19:27;9.98;;;4.63;;
45520;SDS011;61151;50.928;4.534;2022-08-11T19:22:13;19.80;;;5.07;;
45520;SDS011;61151;50.928;4.534;2022-08-11T19:25:00;11.40;;;4.47;;
45520;SDS011;61151;50.928;4.534;2022-08-11T19:27:52;12.25;;;4.80;;
45520;SDS011;61151;50.928;4.534;2022-08-11T19:30:38;17.67;;;4.80;;
45520;SDS011;61151;50.928;4.534;2022-08-11T19:33:24;11.40;;;4.30;;